sensor_id;sensor_type;location;lat;lon;timestamp;P1;durP1;ratioP1;P2;durP2;ratioP2
30519;SDS011;17300;50.374;8.006;2022-12-07T00:01:24;7.50;;;6.63;;
30519;SDS011;17300;50.374;8.006;2022-12-07T00:03:53;7.07;;;6.37;;
30519;SDS011;17300;50.374;8.006;2022-12-07T00:06:22;7.60;;;6.87;;
30519;SDS011;17300;50.374;8.006;2022-12-07T00:08:49;7.47;;;6.70;;
30519;SDS011;17300;50.374;8.006;2022-12-07T00:11:16;8.37;;;6.27;;
30519;SDS011;17300;50.374;8.006;2022-12-07T00:13:45;7.97;;;6.27;;
30519;SDS011;17300;50.374;8.006;2022-12-07T00:16:12;6.20;;;5.60;;
30519;SDS011;17300;50.374;8.006;2022-12-07T00:18:41;6.53;;;5.87;;
30519;SDS011;17300;50.374;8.006;2022-12-07T00:21:09;7.30;;;6.50;;
30519;SDS011;17300;50.374;8.006;2022-12-07T00:23:37;6.93;;;6.23;;
30519;SDS011;17300;50.374;8.006;2022-12-07T00:26:05;6.67;;;6.03;;
30519;SDS011;17300;50.374;8.006;2022-12-07T00:28:32;6.57;;;5.93;;
30519;SDS011;17300;50.374;8.006;2022-12-07T00:31:02;6.50;;;5.77;;
30519;SDS011;17300;50.374;8.006;2022-12-07T00:33:29;7.00;;;6.30;;
30519;SDS011;17300;50.374;8.006;2022-12-07T00:35:57;6.27;;;5.67;;
30519;SDS011;17300;50.374;8.006;2022-12-07T00:38:24;7.73;;;6.50;;
30519;SDS011;17300;50.374;8.006;2022-12-07T00:40:54;7.30;;;6.13;;
30519;SDS011;17300;50.374;8.006;2022-12-07T00:43:22;6.67;;;5.97;;
30519;SDS011;17300;50.374;8.006;2022-12-07T00:45:48;7.57;;;6.00;;
30519;SDS011;17300;50.374;8.006;2022-12-07T00:48:16;6.97;;;5.73;;
30519;SDS011;17300;50.374;8.006;2022-12-07T00:50:43;7.70;;;5.83;;
30519;SDS011;17300;50.374;8.006;2022-12-07T00:53:10;7.47;;;5.83;;
30519;SDS011;17300;50.374;8.006;2022-12-07T00:55:36;6.67;;;5.87;;
30519;SDS011;17300;50.374;8.006;2022-12-07T00:58:03;7.30;;;5.93;;
30519;SDS011;17300;50.374;8.006;2022-12-07T01:00:30;7.60;;;6.00;;
30519;SDS011;17300;50.374;8.006;2022-12-07T01:02:57;6.00;;;5.40;;
30519;SDS011;17300;50.374;8.006;2022-12-07T01:05:25;6.63;;;5.80;;
30519;SDS011;17300;50.374;8.006;2022-12-07T01:07:52;6.23;;;5.63;;
30519;SDS011;17300;50.374;8.006;2022-12-07T01:10:19;6.23;;;5.57;;
30519;SDS011;17300;50.374;8.006;2022-12-07T01:12:45;7.00;;;5.70;;
30519;SDS011;17300;50.374;8.006;2022-12-07T01:15:12;6.47;;;5.57;;
30519;SDS011;17300;50.374;8.006;2022-12-07T01:17:39;6.13;;;5.40;;
30519;SDS011;17300;50.374;8.006;2022-12-07T01:20:06;6.27;;;5.67;;
30519;SDS011;17300;50.374;8.006;2022-12-07T01:22:37;5.63;;;5.10;;
30519;SDS011;17300;50.374;8.006;2022-12-07T01:25:04;6.53;;;5.33;;
30519;SDS011;17300;50.374;8.006;2022-12-07T01:27:32;5.83;;;5.23;;
30519;SDS011;17300;50.374;8.006;2022-12-07T01:29:58;5.93;;;5.33;;
30519;SDS011;17300;50.374;8.006;2022-12-07T01:32:25;6.10;;;5.50;;
30519;SDS011;17300;50.374;8.006;2022-12-07T01:34:52;6.00;;;5.40;;
30519;SDS011;17300;50.374;8.006;2022-12-07T01:37:18;5.70;;;5.10;;
30519;SDS011;17300;50.374;8.006;2022-12-07T01:39:49;6.80;;;5.30;;
30519;SDS011;17300;50.374;8.006;2022-12-07T01:42:16;5.20;;;4.70;;
30519;SDS011;17300;50.374;8.006;2022-12-07T01:48:08;5.60;;;4.90;;
30519;SDS011;17300;50.374;8.006;2022-12-07T01:50:37;4.87;;;4.23;;
30519;SDS011;17300;50.374;8.006;2022-12-07T01:53:06;5.00;;;4.50;;
30519;SDS011;17300;50.374;8.006;2022-12-07T01:55:37;5.53;;;4.73;;
30519;SDS011;17300;50.374;8.006;2022-12-07T01:58:08;5.70;;;5.10;;
30519;SDS011;17300;50.374;8.006;2022-12-07T02:00:36;5.20;;;4.70;;
30519;SDS011;17300;50.374;8.006;2022-12-07T02:03:04;6.03;;;5.00;;
30519;SDS011;17300;50.374;8.006;2022-12-07T02:05:34;6.13;;;5.00;;
30519;SDS011;17300;50.374;8.006;2022-12-07T02:08:03;5.03;;;4.43;;
30519;SDS011;17300;50.374;8.006;2022-12-07T02:10:31;5.07;;;4.57;;
30519;SDS011;17300;50.374;8.006;2022-12-07T02:13:00;5.40;;;4.90;;
30519;SDS011;17300;50.374;8.006;2022-12-07T02:15:32;5.33;;;4.80;;
30519;SDS011;17300;50.374;8.006;2022-12-07T02:18:07;5.50;;;4.93;;
30519;SDS011;17300;50.374;8.006;2022-12-07T02:20:42;5.93;;;5.23;;
30519;SDS011;17300;50.374;8.006;2022-12-07T02:23:23;5.03;;;4.57;;
30519;SDS011;17300;50.374;8.006;2022-12-07T02:26:17;4.70;;;4.20;;
30519;SDS011;17300;50.374;8.006;2022-12-07T02:29:14;4.97;;;4.47;;
30519;SDS011;17300;50.374;8.006;2022-12-07T02:31:46;4.87;;;4.37;;
30519;SDS011;17300;50.374;8.006;2022-12-07T02:34:21;5.37;;;4.73;;
30519;SDS011;17300;50.374;8.006;2022-12-07T02:36:55;5.53;;;4.70;;
30519;SDS011;17300;50.374;8.006;2022-12-07T02:39:28;6.10;;;4.80;;
30519;SDS011;17300;50.374;8.006;2022-12-07T02:42:00;5.30;;;4.80;;
30519;SDS011;17300;50.374;8.006;2022-12-07T02:44:35;5.83;;;5.10;;
30519;SDS011;17300;50.374;8.006;2022-12-07T02:47:03;6.17;;;5.20;;
30519;SDS011;17300;50.374;8.006;2022-12-07T02:49:33;5.93;;;5.10;;
30519;SDS011;17300;50.374;8.006;2022-12-07T02:52:01;6.30;;;5.30;;
30519;SDS011;17300;50.374;8.006;2022-12-07T02:54:28;6.30;;;5.47;;
30519;SDS011;17300;50.374;8.006;2022-12-07T02:56:56;6.53;;;5.33;;
30519;SDS011;17300;50.374;8.006;2022-12-07T02:59:34;5.90;;;5.30;;
30519;SDS011;17300;50.374;8.006;2022-12-07T03:02:15;6.43;;;5.20;;
30519;SDS011;17300;50.374;8.006;2022-12-07T03:04:51;5.47;;;4.97;;
30519;SDS011;17300;50.374;8.006;2022-12-07T03:07:25;5.30;;;4.80;;
30519;SDS011;17300;50.374;8.006;2022-12-07T03:10:00;6.20;;;5.60;;
30519;SDS011;17300;50.374;8.006;2022-12-07T03:12:34;5.63;;;5.10;;
30519;SDS011;17300;50.374;8.006;2022-12-07T03:15:10;6.03;;;5.37;;
30519;SDS011;17300;50.374;8.006;2022-12-07T03:17:40;6.40;;;5.80;;
30519;SDS011;17300;50.374;8.006;2022-12-07T03:20:11;6.00;;;5.20;;
30519;SDS011;17300;50.374;8.006;2022-12-07T03:22:39;6.37;;;5.77;;
30519;SDS011;17300;50.374;8.006;2022-12-07T03:25:08;6.27;;;5.33;;
30519;SDS011;17300;50.374;8.006;2022-12-07T03:27:41;6.93;;;5.93;;
30519;SDS011;17300;50.374;8.006;2022-12-07T03:30:14;6.90;;;6.20;;
30519;SDS011;17300;50.374;8.006;2022-12-07T03:32:43;6.73;;;5.80;;
30519;SDS011;17300;50.374;8.006;2022-12-07T03:35:14;6.57;;;5.93;;
30519;SDS011;17300;50.374;8.006;2022-12-07T03:37:46;6.80;;;6.10;;
30519;SDS011;17300;50.374;8.006;2022-12-07T03:40:19;6.93;;;6.17;;
30519;SDS011;17300;50.374;8.006;2022-12-07T03:42:51;6.40;;;5.57;;
30519;SDS011;17300;50.374;8.006;2022-12-07T03:45:22;6.57;;;5.87;;
30519;SDS011;17300;50.374;8.006;2022-12-07T03:47:59;7.37;;;6.07;;
30519;SDS011;17300;50.374;8.006;2022-12-07T03:50:31;8.03;;;6.33;;
30519;SDS011;17300;50.374;8.006;2022-12-07T03:53:04;6.73;;;5.97;;
30519;SDS011;17300;50.374;8.006;2022-12-07T03:55:37;7.53;;;6.57;;
30519;SDS011;17300;50.374;8.006;2022-12-07T03:58:08;7.17;;;5.90;;
30519;SDS011;17300;50.374;8.006;2022-12-07T04:00:38;6.57;;;5.87;;
30519;SDS011;17300;50.374;8.006;2022-12-07T04:03:06;7.00;;;6.30;;
30519;SDS011;17300;50.374;8.006;2022-12-07T04:05:32;6.97;;;6.00;;
30519;SDS011;17300;50.374;8.006;2022-12-07T04:07:59;6.67;;;6.00;;
30519;SDS011;17300;50.374;8.006;2022-12-07T04:10:26;6.57;;;5.63;;
30519;SDS011;17300;50.374;8.006;2022-12-07T04:12:53;7.17;;;6.07;;
30519;SDS011;17300;50.374;8.006;2022-12-07T04:15:19;6.93;;;5.73;;
30519;SDS011;17300;50.374;8.006;2022-12-07T04:17:47;6.23;;;5.63;;
30519;SDS011;17300;50.374;8.006;2022-12-07T04:20:14;6.93;;;6.17;;
30519;SDS011;17300;50.374;8.006;2022-12-07T04:22:41;7.30;;;5.80;;
30519;SDS011;17300;50.374;8.006;2022-12-07T04:25:08;6.53;;;5.43;;
30519;SDS011;17300;50.374;8.006;2022-12-07T04:27:35;6.93;;;5.87;;
30519;SDS011;17300;50.374;8.006;2022-12-07T04:30:01;7.10;;;6.23;;
30519;SDS011;17300;50.374;8.006;2022-12-07T04:32:29;6.80;;;6.10;;
30519;SDS011;17300;50.374;8.006;2022-12-07T04:34:57;6.93;;;6.23;;
30519;SDS011;17300;50.374;8.006;2022-12-07T04:37:23;7.83;;;6.27;;
30519;SDS011;17300;50.374;8.006;2022-12-07T04:39:50;7.43;;;6.63;;
30519;SDS011;17300;50.374;8.006;2022-12-07T04:42:17;6.87;;;6.17;;
30519;SDS011;17300;50.374;8.006;2022-12-07T04:44:44;8.27;;;6.73;;
30519;SDS011;17300;50.374;8.006;2022-12-07T04:47:10;6.70;;;6.00;;
30519;SDS011;17300;50.374;8.006;2022-12-07T04:49:38;7.17;;;6.40;;
30519;SDS011;17300;50.374;8.006;2022-12-07T04:52:06;6.83;;;6.13;;
30519;SDS011;17300;50.374;8.006;2022-12-07T04:54:32;7.73;;;6.40;;
30519;SDS011;17300;50.374;8.006;2022-12-07T04:56:59;8.07;;;6.63;;
30519;SDS011;17300;50.374;8.006;2022-12-07T04:59:26;6.37;;;5.77;;
30519;SDS011;17300;50.374;8.006;2022-12-07T05:01:52;7.13;;;6.33;;
30519;SDS011;17300;50.374;8.006;2022-12-07T05:04:19;7.40;;;6.30;;
30519;SDS011;17300;50.374;8.006;2022-12-07T05:06:46;7.80;;;6.73;;
30519;SDS011;17300;50.374;8.006;2022-12-07T05:09:14;6.53;;;5.93;;
30519;SDS011;17300;50.374;8.006;2022-12-07T05:11:40;6.97;;;6.27;;
30519;SDS011;17300;50.374;8.006;2022-12-07T05:14:10;6.73;;;5.93;;
30519;SDS011;17300;50.374;8.006;2022-12-07T05:16:38;6.23;;;5.53;;
30519;SDS011;17300;50.374;8.006;2022-12-07T05:19:05;6.80;;;6.10;;
30519;SDS011;17300;50.374;8.006;2022-12-07T05:21:32;7.37;;;6.23;;
30519;SDS011;17300;50.374;8.006;2022-12-07T05:23:59;7.07;;;6.30;;
30519;SDS011;17300;50.374;8.006;2022-12-07T05:26:27;6.60;;;6.00;;
30519;SDS011;17300;50.374;8.006;2022-12-07T05:28:55;7.10;;;6.20;;
30519;SDS011;17300;50.374;8.006;2022-12-07T05:31:22;6.77;;;6.07;;
30519;SDS011;17300;50.374;8.006;2022-12-07T05:33:50;6.73;;;6.03;;
30519;SDS011;17300;50.374;8.006;2022-12-07T05:36:17;6.50;;;5.90;;
30519;SDS011;17300;50.374;8.006;2022-12-07T05:38:43;6.53;;;5.93;;
30519;SDS011;17300;50.374;8.006;2022-12-07T05:41:11;7.00;;;6.30;;
30519;SDS011;17300;50.374;8.006;2022-12-07T05:43:55;6.97;;;6.00;;
30519;SDS011;17300;50.374;8.006;2022-12-07T05:46:22;6.93;;;6.23;;
30519;SDS011;17300;50.374;8.006;2022-12-07T05:48:48;6.10;;;5.50;;
30519;SDS011;17300;50.374;8.006;2022-12-07T05:51:15;6.53;;;5.83;;
30519;SDS011;17300;50.374;8.006;2022-12-07T05:53:42;6.87;;;6.17;;
30519;SDS011;17300;50.374;8.006;2022-12-07T05:56:09;6.77;;;5.90;;
30519;SDS011;17300;50.374;8.006;2022-12-07T05:58:35;6.17;;;5.50;;
30519;SDS011;17300;50.374;8.006;2022-12-07T06:01:21;5.93;;;5.33;;
30519;SDS011;17300;50.374;8.006;2022-12-07T06:03:48;6.70;;;6.00;;
30519;SDS011;17300;50.374;8.006;2022-12-07T06:06:15;6.07;;;5.47;;
30519;SDS011;17300;50.374;8.006;2022-12-07T06:08:42;6.10;;;5.50;;
30519;SDS011;17300;50.374;8.006;2022-12-07T06:11:08;6.37;;;5.77;;
30519;SDS011;17300;50.374;8.006;2022-12-07T06:13:53;6.20;;;5.60;;
30519;SDS011;17300;50.374;8.006;2022-12-07T06:16:19;6.40;;;5.73;;
30519;SDS011;17300;50.374;8.006;2022-12-07T06:18:47;6.33;;;5.30;;
30519;SDS011;17300;50.374;8.006;2022-12-07T06:21:14;6.17;;;5.57;;
30519;SDS011;17300;50.374;8.006;2022-12-07T06:23:41;5.93;;;5.33;;
30519;SDS011;17300;50.374;8.006;2022-12-07T06:26:07;5.63;;;5.13;;
30519;SDS011;17300;50.374;8.006;2022-12-07T06:28:34;6.37;;;5.77;;
30519;SDS011;17300;50.374;8.006;2022-12-07T06:31:01;5.90;;;5.30;;
30519;SDS011;17300;50.374;8.006;2022-12-07T06:33:30;7.10;;;6.40;;
30519;SDS011;17300;50.374;8.006;2022-12-07T06:35:56;5.90;;;5.40;;
30519;SDS011;17300;50.374;8.006;2022-12-07T06:38:23;6.37;;;5.77;;
30519;SDS011;17300;50.374;8.006;2022-12-07T06:40:49;6.13;;;5.53;;
30519;SDS011;17300;50.374;8.006;2022-12-07T06:43:16;6.57;;;5.63;;
30519;SDS011;17300;50.374;8.006;2022-12-07T06:45:43;7.83;;;7.07;;
30519;SDS011;17300;50.374;8.006;2022-12-07T06:48:09;6.47;;;5.87;;
30519;SDS011;17300;50.374;8.006;2022-12-07T06:50:37;6.53;;;5.87;;
30519;SDS011;17300;50.374;8.006;2022-12-07T06:53:04;6.73;;;6.03;;
30519;SDS011;17300;50.374;8.006;2022-12-07T06:55:31;6.37;;;5.30;;
30519;SDS011;17300;50.374;8.006;2022-12-07T06:57:57;6.10;;;5.50;;
30519;SDS011;17300;50.374;8.006;2022-12-07T07:00:24;5.97;;;5.37;;
30519;SDS011;17300;50.374;8.006;2022-12-07T07:02:51;5.83;;;5.23;;
30519;SDS011;17300;50.374;8.006;2022-12-07T07:05:17;5.60;;;5.10;;
30519;SDS011;17300;50.374;8.006;2022-12-07T07:07:48;5.73;;;5.07;;
30519;SDS011;17300;50.374;8.006;2022-12-07T07:10:14;5.80;;;5.20;;
30519;SDS011;17300;50.374;8.006;2022-12-07T07:12:41;6.07;;;5.33;;
30519;SDS011;17300;50.374;8.006;2022-12-07T07:15:08;4.77;;;4.37;;
30519;SDS011;17300;50.374;8.006;2022-12-07T07:17:36;5.10;;;4.60;;
30519;SDS011;17300;50.374;8.006;2022-12-07T07:20:03;4.63;;;4.23;;
30519;SDS011;17300;50.374;8.006;2022-12-07T07:22:31;4.57;;;4.17;;
30519;SDS011;17300;50.374;8.006;2022-12-07T07:24:59;5.20;;;4.70;;
30519;SDS011;17300;50.374;8.006;2022-12-07T07:27:26;4.93;;;4.33;;
30519;SDS011;17300;50.374;8.006;2022-12-07T07:29:53;5.07;;;4.57;;
30519;SDS011;17300;50.374;8.006;2022-12-07T07:32:19;4.67;;;4.27;;
30519;SDS011;17300;50.374;8.006;2022-12-07T07:34:47;5.00;;;4.50;;
30519;SDS011;17300;50.374;8.006;2022-12-07T07:37:14;5.00;;;4.50;;
30519;SDS011;17300;50.374;8.006;2022-12-07T07:39:40;4.87;;;4.07;;
30519;SDS011;17300;50.374;8.006;2022-12-07T07:42:08;4.57;;;4.17;;
30519;SDS011;17300;50.374;8.006;2022-12-07T07:44:35;4.97;;;3.90;;
30519;SDS011;17300;50.374;8.006;2022-12-07T07:47:02;4.57;;;4.17;;
30519;SDS011;17300;50.374;8.006;2022-12-07T07:49:29;4.50;;;4.10;;
30519;SDS011;17300;50.374;8.006;2022-12-07T07:51:56;5.63;;;4.70;;
30519;SDS011;17300;50.374;8.006;2022-12-07T07:54:23;4.37;;;3.97;;
30519;SDS011;17300;50.374;8.006;2022-12-07T07:56:50;4.60;;;4.20;;
30519;SDS011;17300;50.374;8.006;2022-12-07T07:59:19;5.03;;;4.50;;
30519;SDS011;17300;50.374;8.006;2022-12-07T08:01:46;4.60;;;4.20;;
30519;SDS011;17300;50.374;8.006;2022-12-07T08:04:12;4.40;;;4.00;;
30519;SDS011;17300;50.374;8.006;2022-12-07T08:06:39;4.43;;;4.03;;
30519;SDS011;17300;50.374;8.006;2022-12-07T08:09:07;4.47;;;4.07;;
30519;SDS011;17300;50.374;8.006;2022-12-07T08:11:34;4.33;;;3.93;;
30519;SDS011;17300;50.374;8.006;2022-12-07T08:14:01;3.90;;;3.60;;
30519;SDS011;17300;50.374;8.006;2022-12-07T08:16:29;3.93;;;3.63;;
30519;SDS011;17300;50.374;8.006;2022-12-07T08:18:56;4.23;;;3.83;;
30519;SDS011;17300;50.374;8.006;2022-12-07T08:21:23;4.10;;;3.70;;
30519;SDS011;17300;50.374;8.006;2022-12-07T08:23:50;4.60;;;4.20;;
30519;SDS011;17300;50.374;8.006;2022-12-07T08:26:16;4.60;;;4.20;;
30519;SDS011;17300;50.374;8.006;2022-12-07T08:28:43;4.33;;;3.93;;
30519;SDS011;17300;50.374;8.006;2022-12-07T08:31:11;4.50;;;4.10;;
30519;SDS011;17300;50.374;8.006;2022-12-07T08:33:41;4.53;;;4.13;;
30519;SDS011;17300;50.374;8.006;2022-12-07T08:36:09;5.70;;;5.20;;
30519;SDS011;17300;50.374;8.006;2022-12-07T08:38:37;5.07;;;4.57;;
30519;SDS011;17300;50.374;8.006;2022-12-07T08:41:05;4.23;;;3.83;;
30519;SDS011;17300;50.374;8.006;2022-12-07T08:43:35;4.30;;;3.90;;
30519;SDS011;17300;50.374;8.006;2022-12-07T08:46:04;4.97;;;4.30;;
30519;SDS011;17300;50.374;8.006;2022-12-07T08:48:33;4.33;;;3.97;;
30519;SDS011;17300;50.374;8.006;2022-12-07T08:51:03;4.03;;;3.67;;
30519;SDS011;17300;50.374;8.006;2022-12-07T08:53:30;4.47;;;4.07;;
30519;SDS011;17300;50.374;8.006;2022-12-07T08:55:59;4.27;;;3.87;;
30519;SDS011;17300;50.374;8.006;2022-12-07T08:58:26;5.70;;;5.13;;
30519;SDS011;17300;50.374;8.006;2022-12-07T09:00:54;5.47;;;4.97;;
30519;SDS011;17300;50.374;8.006;2022-12-07T09:03:20;4.67;;;4.27;;
30519;SDS011;17300;50.374;8.006;2022-12-07T09:05:47;4.83;;;4.43;;
30519;SDS011;17300;50.374;8.006;2022-12-07T09:08:15;4.43;;;4.03;;
30519;SDS011;17300;50.374;8.006;2022-12-07T09:10:42;4.63;;;4.23;;
30519;SDS011;17300;50.374;8.006;2022-12-07T09:13:09;4.20;;;3.50;;
30519;SDS011;17300;50.374;8.006;2022-12-07T09:15:35;4.13;;;3.73;;
30519;SDS011;17300;50.374;8.006;2022-12-07T09:18:02;4.30;;;3.80;;
30519;SDS011;17300;50.374;8.006;2022-12-07T09:20:29;3.70;;;3.03;;
30519;SDS011;17300;50.374;8.006;2022-12-07T09:22:56;3.10;;;2.77;;
30519;SDS011;17300;50.374;8.006;2022-12-07T09:25:24;2.50;;;2.30;;
30519;SDS011;17300;50.374;8.006;2022-12-07T09:27:54;2.43;;;2.23;;
30519;SDS011;17300;50.374;8.006;2022-12-07T09:30:22;2.50;;;2.30;;
30519;SDS011;17300;50.374;8.006;2022-12-07T09:32:49;2.57;;;1.93;;
30519;SDS011;17300;50.374;8.006;2022-12-07T09:35:16;3.57;;;2.13;;
30519;SDS011;17300;50.374;8.006;2022-12-07T09:37:43;2.03;;;1.93;;
30519;SDS011;17300;50.374;8.006;2022-12-07T09:40:09;3.20;;;2.73;;
30519;SDS011;17300;50.374;8.006;2022-12-07T09:42:39;3.73;;;3.23;;
30519;SDS011;17300;50.374;8.006;2022-12-07T09:45:11;3.60;;;3.30;;
30519;SDS011;17300;50.374;8.006;2022-12-07T09:47:40;3.97;;;3.67;;
30519;SDS011;17300;50.374;8.006;2022-12-07T09:50:11;4.53;;;4.13;;
30519;SDS011;17300;50.374;8.006;2022-12-07T09:52:39;4.83;;;4.43;;
30519;SDS011;17300;50.374;8.006;2022-12-07T09:55:11;4.37;;;4.00;;
30519;SDS011;17300;50.374;8.006;2022-12-07T09:57:40;4.63;;;4.23;;
30519;SDS011;17300;50.374;8.006;2022-12-07T10:00:10;4.40;;;4.00;;
30519;SDS011;17300;50.374;8.006;2022-12-07T10:02:40;5.80;;;4.20;;
30519;SDS011;17300;50.374;8.006;2022-12-07T10:05:10;4.97;;;4.47;;
30519;SDS011;17300;50.374;8.006;2022-12-07T10:07:40;4.27;;;3.87;;
30519;SDS011;17300;50.374;8.006;2022-12-07T10:10:12;4.63;;;4.13;;
30519;SDS011;17300;50.374;8.006;2022-12-07T10:12:57;3.97;;;3.33;;
30519;SDS011;17300;50.374;8.006;2022-12-07T10:15:42;3.73;;;3.13;;
30519;SDS011;17300;50.374;8.006;2022-12-07T10:18:16;4.37;;;3.30;;
30519;SDS011;17300;50.374;8.006;2022-12-07T10:21:03;4.03;;;3.10;;
30519;SDS011;17300;50.374;8.006;2022-12-07T10:23:36;3.93;;;3.10;;
30519;SDS011;17300;50.374;8.006;2022-12-07T10:26:21;4.20;;;3.40;;
30519;SDS011;17300;50.374;8.006;2022-12-07T10:28:59;2.90;;;2.70;;
30519;SDS011;17300;50.374;8.006;2022-12-07T10:31:28;3.17;;;2.87;;
30519;SDS011;17300;50.374;8.006;2022-12-07T10:33:57;2.97;;;2.67;;
30519;SDS011;17300;50.374;8.006;2022-12-07T10:36:26;2.90;;;2.70;;
30519;SDS011;17300;50.374;8.006;2022-12-07T10:39:01;3.40;;;3.10;;
30519;SDS011;17300;50.374;8.006;2022-12-07T10:41:29;3.07;;;2.77;;
30519;SDS011;17300;50.374;8.006;2022-12-07T10:43:56;3.00;;;2.70;;
30519;SDS011;17300;50.374;8.006;2022-12-07T10:46:32;2.97;;;2.70;;
30519;SDS011;17300;50.374;8.006;2022-12-07T10:49:31;2.60;;;2.40;;
30519;SDS011;17300;50.374;8.006;2022-12-07T10:52:13;2.60;;;2.40;;
30519;SDS011;17300;50.374;8.006;2022-12-07T10:54:52;2.30;;;2.03;;
30519;SDS011;17300;50.374;8.006;2022-12-07T10:57:36;2.70;;;2.40;;
30519;SDS011;17300;50.374;8.006;2022-12-07T11:00:15;2.97;;;2.07;;
30519;SDS011;17300;50.374;8.006;2022-12-07T11:05:48;2.23;;;2.00;;
30519;SDS011;17300;50.374;8.006;2022-12-07T11:08:21;2.40;;;2.20;;
30519;SDS011;17300;50.374;8.006;2022-12-07T11:11:05;2.23;;;1.93;;
30519;SDS011;17300;50.374;8.006;2022-12-07T11:13:37;3.00;;;2.23;;
30519;SDS011;17300;50.374;8.006;2022-12-07T11:16:21;2.27;;;2.07;;
30519;SDS011;17300;50.374;8.006;2022-12-07T11:19:10;2.13;;;1.63;;
30519;SDS011;17300;50.374;8.006;2022-12-07T11:21:47;2.10;;;1.83;;
30519;SDS011;17300;50.374;8.006;2022-12-07T11:24:19;2.47;;;2.20;;
30519;SDS011;17300;50.374;8.006;2022-12-07T11:26:55;2.13;;;1.77;;
30519;SDS011;17300;50.374;8.006;2022-12-07T11:29:37;2.33;;;1.90;;
30519;SDS011;17300;50.374;8.006;2022-12-07T11:32:22;2.00;;;1.73;;
30519;SDS011;17300;50.374;8.006;2022-12-07T11:35:04;2.33;;;1.90;;
30519;SDS011;17300;50.374;8.006;2022-12-07T11:37:34;2.10;;;1.80;;
30519;SDS011;17300;50.374;8.006;2022-12-07T11:40:05;2.17;;;1.70;;
30519;SDS011;17300;50.374;8.006;2022-12-07T11:42:42;2.47;;;1.80;;
30519;SDS011;17300;50.374;8.006;2022-12-07T11:45:13;1.53;;;1.43;;
30519;SDS011;17300;50.374;8.006;2022-12-07T11:47:45;2.13;;;1.80;;
30519;SDS011;17300;50.374;8.006;2022-12-07T11:50:23;2.20;;;1.90;;
30519;SDS011;17300;50.374;8.006;2022-12-07T11:52:53;2.33;;;1.70;;
30519;SDS011;17300;50.374;8.006;2022-12-07T11:55:24;2.10;;;1.87;;
30519;SDS011;17300;50.374;8.006;2022-12-07T11:58:00;2.77;;;2.03;;
30519;SDS011;17300;50.374;8.006;2022-12-07T12:00:31;2.07;;;1.83;;
30519;SDS011;17300;50.374;8.006;2022-12-07T12:02:59;2.60;;;1.80;;
30519;SDS011;17300;50.374;8.006;2022-12-07T12:05:30;1.73;;;1.43;;
30519;SDS011;17300;50.374;8.006;2022-12-07T12:07:59;2.00;;;1.60;;
30519;SDS011;17300;50.374;8.006;2022-12-07T12:10:42;1.53;;;1.43;;
30519;SDS011;17300;50.374;8.006;2022-12-07T12:16:38;1.87;;;1.60;;
30519;SDS011;17300;50.374;8.006;2022-12-07T12:19:19;3.27;;;1.70;;
30519;SDS011;17300;50.374;8.006;2022-12-07T12:21:59;2.20;;;1.80;;
30519;SDS011;17300;50.374;8.006;2022-12-07T12:24:32;1.47;;;1.37;;
30519;SDS011;17300;50.374;8.006;2022-12-07T12:27:01;1.47;;;1.37;;
30519;SDS011;17300;50.374;8.006;2022-12-07T12:29:31;2.97;;;1.60;;
30519;SDS011;17300;50.374;8.006;2022-12-07T12:32:07;1.63;;;1.53;;
30519;SDS011;17300;50.374;8.006;2022-12-07T12:34:41;1.50;;;1.40;;
30519;SDS011;17300;50.374;8.006;2022-12-07T12:37:39;1.37;;;1.27;;
30519;SDS011;17300;50.374;8.006;2022-12-07T12:49:14;1.60;;;1.30;;
30519;SDS011;17300;50.374;8.006;2022-12-07T12:51:58;1.33;;;1.10;;
30519;SDS011;17300;50.374;8.006;2022-12-07T12:54:30;1.40;;;1.20;;
30519;SDS011;17300;50.374;8.006;2022-12-07T12:56:58;2.10;;;1.20;;
30519;SDS011;17300;50.374;8.006;2022-12-07T12:59:32;1.93;;;1.30;;
30519;SDS011;17300;50.374;8.006;2022-12-07T13:02:09;1.60;;;1.17;;
30519;SDS011;17300;50.374;8.006;2022-12-07T13:04:48;2.17;;;1.23;;
30519;SDS011;17300;50.374;8.006;2022-12-07T13:10:38;1.20;;;1.10;;
30519;SDS011;17300;50.374;8.006;2022-12-07T13:18:56;2.50;;;1.97;;
30519;SDS011;17300;50.374;8.006;2022-12-07T13:21:40;2.97;;;2.00;;
30519;SDS011;17300;50.374;8.006;2022-12-07T13:24:08;1.50;;;1.40;;
30519;SDS011;17300;50.374;8.006;2022-12-07T13:26:41;1.50;;;1.40;;
30519;SDS011;17300;50.374;8.006;2022-12-07T13:29:11;1.33;;;1.10;;
30519;SDS011;17300;50.374;8.006;2022-12-07T13:31:39;1.60;;;1.43;;
30519;SDS011;17300;50.374;8.006;2022-12-07T13:36:56;2.47;;;1.40;;
30519;SDS011;17300;50.374;8.006;2022-12-07T13:39:25;1.93;;;1.43;;
30519;SDS011;17300;50.374;8.006;2022-12-07T13:41:53;2.30;;;1.50;;
30519;SDS011;17300;50.374;8.006;2022-12-07T13:44:22;2.00;;;1.53;;
30519;SDS011;17300;50.374;8.006;2022-12-07T13:46:54;2.03;;;1.87;;
30519;SDS011;17300;50.374;8.006;2022-12-07T13:49:27;2.37;;;1.70;;
30519;SDS011;17300;50.374;8.006;2022-12-07T13:51:55;1.90;;;1.70;;
30519;SDS011;17300;50.374;8.006;2022-12-07T13:54:43;2.00;;;1.53;;
30519;SDS011;17300;50.374;8.006;2022-12-07T13:57:12;2.93;;;1.67;;
30519;SDS011;17300;50.374;8.006;2022-12-07T13:59:39;4.10;;;1.70;;
30519;SDS011;17300;50.374;8.006;2022-12-07T14:02:16;2.00;;;1.57;;
30519;SDS011;17300;50.374;8.006;2022-12-07T14:04:45;2.10;;;1.90;;
30519;SDS011;17300;50.374;8.006;2022-12-07T14:07:21;2.07;;;1.80;;
30519;SDS011;17300;50.374;8.006;2022-12-07T14:09:53;2.87;;;2.20;;
30519;SDS011;17300;50.374;8.006;2022-12-07T14:12:23;2.40;;;2.20;;
30519;SDS011;17300;50.374;8.006;2022-12-07T14:14:50;2.30;;;2.10;;
30519;SDS011;17300;50.374;8.006;2022-12-07T14:17:19;2.90;;;2.10;;
30519;SDS011;17300;50.374;8.006;2022-12-07T14:19:48;2.07;;;1.70;;
30519;SDS011;17300;50.374;8.006;2022-12-07T14:22:21;2.63;;;1.93;;
30519;SDS011;17300;50.374;8.006;2022-12-07T14:24:50;3.03;;;2.50;;
30519;SDS011;17300;50.374;8.006;2022-12-07T14:27:29;3.80;;;2.10;;
30519;SDS011;17300;50.374;8.006;2022-12-07T14:29:58;2.20;;;2.00;;
30519;SDS011;17300;50.374;8.006;2022-12-07T14:32:26;2.83;;;2.03;;
30519;SDS011;17300;50.374;8.006;2022-12-07T14:35:01;1.77;;;1.50;;
30519;SDS011;17300;50.374;8.006;2022-12-07T14:37:29;3.90;;;1.80;;
30519;SDS011;17300;50.374;8.006;2022-12-07T14:39:56;2.60;;;1.80;;
30519;SDS011;17300;50.374;8.006;2022-12-07T14:42:24;3.07;;;1.90;;
30519;SDS011;17300;50.374;8.006;2022-12-07T14:44:56;2.37;;;1.70;;
30519;SDS011;17300;50.374;8.006;2022-12-07T14:47:23;1.43;;;1.20;;
30519;SDS011;17300;50.374;8.006;2022-12-07T14:49:50;1.40;;;1.30;;
30519;SDS011;17300;50.374;8.006;2022-12-07T14:52:18;0.93;;;0.90;;
30519;SDS011;17300;50.374;8.006;2022-12-07T14:54:46;1.43;;;1.27;;
30519;SDS011;17300;50.374;8.006;2022-12-07T14:57:13;1.07;;;0.97;;
30519;SDS011;17300;50.374;8.006;2022-12-07T14:59:41;1.80;;;1.47;;
30519;SDS011;17300;50.374;8.006;2022-12-07T15:02:09;1.40;;;1.30;;
30519;SDS011;17300;50.374;8.006;2022-12-07T15:04:37;2.67;;;1.30;;
30519;SDS011;17300;50.374;8.006;2022-12-07T15:07:04;1.17;;;1.07;;
30519;SDS011;17300;50.374;8.006;2022-12-07T15:09:32;1.40;;;1.30;;
30519;SDS011;17300;50.374;8.006;2022-12-07T15:11:59;1.70;;;1.50;;
30519;SDS011;17300;50.374;8.006;2022-12-07T15:14:25;1.87;;;1.63;;
30519;SDS011;17300;50.374;8.006;2022-12-07T15:16:53;1.20;;;1.10;;
30519;SDS011;17300;50.374;8.006;2022-12-07T15:19:21;2.03;;;1.30;;
30519;SDS011;17300;50.374;8.006;2022-12-07T15:21:51;1.47;;;1.37;;
30519;SDS011;17300;50.374;8.006;2022-12-07T15:24:18;2.33;;;1.57;;
30519;SDS011;17300;50.374;8.006;2022-12-07T15:26:45;3.73;;;1.80;;
30519;SDS011;17300;50.374;8.006;2022-12-07T15:29:12;1.50;;;1.40;;
30519;SDS011;17300;50.374;8.006;2022-12-07T15:31:39;2.13;;;1.53;;
30519;SDS011;17300;50.374;8.006;2022-12-07T15:34:08;1.83;;;1.70;;
30519;SDS011;17300;50.374;8.006;2022-12-07T15:36:35;2.20;;;1.90;;